createdAt,value
2023-01-13T00:00:04.727Z,3.53
2023-01-13T00:02:39.001Z,3.60
2023-01-13T00:05:06.944Z,3.42
2023-01-13T00:07:34.157Z,3.97
2023-01-13T00:10:01.316Z,3.53
2023-01-13T00:12:28.438Z,4.17
2023-01-13T00:14:55.630Z,4.50
2023-01-13T00:17:22.833Z,4.07
2023-01-13T00:19:50.057Z,4.05
2023-01-13T00:22:17.195Z,4.32
2023-01-13T00:24:44.349Z,4.37
2023-01-13T00:27:11.480Z,4.22
2023-01-13T00:29:38.639Z,4.40
2023-01-13T00:32:05.812Z,3.95
2023-01-13T00:34:33.257Z,3.90
2023-01-13T00:37:00.454Z,4.05
2023-01-13T00:39:27.790Z,4.20
2023-01-13T00:42:13.675Z,4.43
2023-01-13T00:44:40.999Z,4.00
2023-01-13T00:47:08.138Z,3.63
2023-01-13T00:49:35.502Z,4.38
2023-01-13T00:52:02.712Z,3.80
2023-01-13T00:54:29.864Z,4.05
2023-01-13T00:56:56.980Z,5.30
2023-01-13T00:59:24.122Z,4.43
2023-01-13T01:01:51.362Z,3.90
2023-01-13T01:04:18.654Z,3.95
2023-01-13T01:06:45.821Z,4.05
2023-01-13T01:09:16.684Z,4.07
2023-01-13T01:11:44.383Z,4.93
2023-01-13T01:14:13.227Z,4.70
2023-01-13T01:16:41.258Z,3.95
2023-01-13T01:19:08.533Z,4.05
2023-01-13T01:21:35.847Z,4.18
2023-01-13T01:24:04.236Z,4.38
2023-01-13T01:26:31.813Z,4.40
2023-01-13T01:28:59.569Z,4.60
2023-01-13T01:31:29.145Z,3.95
2023-01-13T01:33:56.463Z,4.38
2023-01-13T01:36:26.684Z,4.63
2023-01-13T01:38:57.446Z,4.00
2023-01-13T01:41:27.368Z,3.83
2023-01-13T01:44:32.534Z,4.45
2023-01-13T01:46:59.710Z,4.07
2023-01-13T01:49:33.349Z,4.35
2023-01-13T01:52:09.055Z,4.82
2023-01-13T01:54:51.373Z,4.72
2023-01-13T01:57:22.197Z,4.70
2023-01-13T01:59:49.878Z,4.10
2023-01-13T02:02:17.927Z,5.18
2023-01-13T02:04:52.964Z,4.63
2023-01-13T02:07:24.544Z,4.40
2023-01-13T02:09:53.897Z,4.95
2023-01-13T02:12:30.400Z,3.92
2023-01-13T02:15:13.189Z,4.60
2023-01-13T02:17:50.933Z,4.72
2023-01-13T02:20:45.775Z,4.40
2023-01-13T02:23:52.483Z,4.57
2023-01-13T02:26:50.277Z,4.45
2023-01-13T02:30:16.655Z,4.50
2023-01-13T02:33:11.358Z,4.68
2023-01-13T02:35:50.934Z,4.15
2023-01-13T02:38:25.716Z,4.28
2023-01-13T02:41:47.691Z,4.50
2023-01-13T02:44:20.250Z,4.75
2023-01-13T02:47:10.060Z,5.13
2023-01-13T02:49:49.908Z,4.88
2023-01-13T02:52:21.060Z,4.38
2023-01-13T02:54:55.193Z,4.40
2023-01-13T02:57:24.804Z,4.65
2023-01-13T02:59:55.100Z,4.23
2023-01-13T03:02:23.495Z,4.72
2023-01-13T03:04:59.048Z,4.50
2023-01-13T03:07:46.141Z,4.70
2023-01-13T03:10:29.710Z,4.95
2023-01-13T03:13:20.499Z,5.05
2023-01-13T03:15:59.520Z,6.00
2023-01-13T03:19:04.453Z,4.78
2023-01-13T03:21:40.588Z,4.93
2023-01-13T03:24:32.267Z,4.72
2023-01-13T03:27:18.113Z,3.40
2023-01-13T03:30:05.090Z,4.20
2023-01-13T03:32:45.004Z,3.67
2023-01-13T03:35:27.751Z,4.50
2023-01-13T03:38:05.567Z,3.88
2023-01-13T03:40:44.193Z,4.70
2023-01-13T03:43:34.918Z,5.22
2023-01-13T03:46:12.446Z,5.50
2023-01-13T03:48:42.688Z,4.57
2023-01-13T03:51:16.331Z,4.97
2023-01-13T03:53:53.570Z,4.53
2023-01-13T03:56:41.311Z,4.57
2023-01-13T03:59:14.150Z,4.65
2023-01-13T04:01:59.147Z,3.85
2023-01-13T04:04:31.318Z,4.75
2023-01-13T04:07:21.522Z,4.20
2023-01-13T04:09:52.776Z,4.38
2023-01-13T04:12:58.220Z,3.25
2023-01-13T04:15:29.960Z,4.10
2023-01-13T04:18:10.669Z,3.38
2023-01-13T04:20:39.780Z,3.78
2023-01-13T04:23:07.102Z,3.55
2023-01-13T04:25:34.926Z,3.58
2023-01-13T04:28:02.751Z,3.80
2023-01-13T04:30:29.958Z,3.60
2023-01-13T04:32:57.161Z,3.47
2023-01-13T04:35:24.674Z,2.88
2023-01-13T04:37:51.869Z,3.17
2023-01-13T04:40:19.238Z,3.17
2023-01-13T04:42:46.506Z,3.17
2023-01-13T04:45:13.873Z,3.53
2023-01-13T04:47:43.882Z,2.53
2023-01-13T04:50:13.747Z,2.40
2023-01-13T04:52:41.046Z,2.42
2023-01-13T04:55:09.025Z,2.47
2023-01-13T04:57:37.618Z,2.75
2023-01-13T05:00:07.267Z,2.45
2023-01-13T05:02:34.467Z,2.78
2023-01-13T05:05:01.796Z,2.80
2023-01-13T05:07:29.032Z,2.33
2023-01-13T05:09:56.202Z,2.60
2023-01-13T05:12:42.015Z,2.40
2023-01-13T05:15:31.405Z,2.88
2023-01-13T05:17:58.967Z,3.22
2023-01-13T05:20:26.206Z,2.75
2023-01-13T05:23:12.398Z,2.90
2023-01-13T05:25:44.066Z,2.33
2023-01-13T05:28:11.594Z,2.60
2023-01-13T05:30:44.371Z,2.55
2023-01-13T05:33:16.294Z,2.78
2023-01-13T05:35:45.744Z,2.88
2023-01-13T05:38:13.724Z,2.40
2023-01-13T05:41:00.483Z,3.10
2023-01-13T05:43:28.084Z,2.85
2023-01-13T05:46:07.929Z,2.85
2023-01-13T05:48:41.127Z,3.23
2023-01-13T05:51:10.304Z,2.70
2023-01-13T05:53:37.720Z,2.25
2023-01-13T05:56:06.053Z,2.30
2023-01-13T05:58:33.422Z,2.53
2023-01-13T06:01:03.694Z,2.40
2023-01-13T06:03:31.431Z,2.83
2023-01-13T06:06:01.464Z,3.83
2023-01-13T06:08:28.872Z,2.92
2023-01-13T06:10:56.280Z,2.45
2023-01-13T06:13:25.188Z,2.70
2023-01-13T06:15:56.675Z,2.65
2023-01-13T06:18:24.677Z,3.15
2023-01-13T06:20:51.860Z,3.30
2023-01-13T06:23:19.123Z,3.05
2023-01-13T06:25:52.355Z,3.00
2023-01-13T06:28:19.511Z,3.28
2023-01-13T06:30:52.993Z,2.85
2023-01-13T06:33:24.805Z,2.70
2023-01-13T06:35:58.062Z,3.43
2023-01-13T06:38:28.557Z,3.08
2023-01-13T06:40:55.852Z,2.63
2023-01-13T06:43:23.175Z,2.97
2023-01-13T06:45:55.246Z,3.33
2023-01-13T06:48:25.192Z,2.92
2023-01-13T06:50:52.331Z,3.22
2023-01-13T06:53:20.400Z,2.90
2023-01-13T06:55:47.569Z,2.75
2023-01-13T06:58:14.714Z,2.70
2023-01-13T07:00:42.165Z,2.88
2023-01-13T07:03:14.716Z,3.00
2023-01-13T07:05:43.990Z,2.42
2023-01-13T07:08:11.576Z,3.03
2023-01-13T07:10:38.806Z,3.05
2023-01-13T07:13:25.273Z,2.90
2023-01-13T07:15:54.520Z,3.30
2023-01-13T07:18:21.804Z,3.03
2023-01-13T07:20:57.043Z,3.03
2023-01-13T07:23:25.473Z,3.33
2023-01-13T07:25:56.148Z,2.72
2023-01-13T07:28:24.723Z,2.88
2023-01-13T07:30:51.899Z,3.05
2023-01-13T07:33:19.465Z,3.50
2023-01-13T07:35:47.289Z,3.20
2023-01-13T07:38:15.379Z,3.08
2023-01-13T07:40:42.584Z,3.45
2023-01-13T07:43:31.326Z,2.75
2023-01-13T07:46:06.059Z,3.60
2023-01-13T07:48:34.699Z,3.17
2023-01-13T07:51:07.370Z,3.08
2023-01-13T07:53:35.315Z,2.80
2023-01-13T07:56:04.822Z,3.13
2023-01-13T07:58:34.335Z,2.63
2023-01-13T08:01:10.965Z,2.80
2023-01-13T08:03:39.118Z,2.92
2023-01-13T08:06:07.085Z,3.10
2023-01-13T08:08:34.404Z,3.30
2023-01-13T08:11:03.471Z,3.17
2023-01-13T08:13:30.768Z,3.78
2023-01-13T08:16:07.065Z,3.50
2023-01-13T08:18:35.591Z,2.92
2023-01-13T08:21:05.379Z,3.55
2023-01-13T08:23:32.554Z,3.10
2023-01-13T08:26:02.149Z,3.25
2023-01-13T08:28:31.160Z,3.27
2023-01-13T08:31:03.793Z,3.63
2023-01-13T08:33:31.112Z,3.63
2023-01-13T08:35:58.753Z,3.40
2023-01-13T08:38:26.051Z,4.23
2023-01-13T08:40:53.334Z,2.50
2023-01-13T08:43:20.546Z,3.30
2023-01-13T08:45:57.273Z,3.92
2023-01-13T08:48:24.877Z,3.58
2023-01-13T08:50:53.167Z,3.45
2023-01-13T08:53:22.248Z,3.45
2023-01-13T08:55:49.448Z,4.00
2023-01-13T08:58:16.562Z,3.40
2023-01-13T09:00:44.587Z,3.22
2023-01-13T09:03:11.960Z,3.78
2023-01-13T09:05:39.304Z,3.83
2023-01-13T09:08:06.512Z,3.28
2023-01-13T09:10:35.556Z,4.00
2023-01-13T09:13:11.895Z,3.42
2023-01-13T09:15:44.293Z,3.60
2023-01-13T09:18:12.429Z,3.03
2023-01-13T09:20:39.896Z,3.10
2023-01-13T09:23:10.318Z,2.97
2023-01-13T09:25:38.811Z,2.40
2023-01-13T09:28:07.908Z,3.20
2023-01-13T09:30:36.144Z,2.83
2023-01-13T09:33:22.184Z,3.30
2023-01-13T09:35:49.467Z,2.72
2023-01-13T09:38:16.606Z,3.10
2023-01-13T09:40:43.957Z,2.78
2023-01-13T09:43:41.942Z,3.55
2023-01-13T09:46:36.535Z,3.37
2023-01-13T09:49:04.269Z,3.10
2023-01-13T09:51:41.561Z,2.67
2023-01-13T09:54:21.341Z,3.13
2023-01-13T09:56:48.834Z,2.55
2023-01-13T09:59:16.279Z,2.95
2023-01-13T10:02:12.779Z,2.50
2023-01-13T10:04:40.010Z,2.70
2023-01-13T10:07:14.129Z,3.00
2023-01-13T10:09:53.737Z,2.58
2023-01-13T10:12:43.643Z,2.70
2023-01-13T10:15:16.547Z,2.60
2023-01-13T10:18:02.065Z,3.08
2023-01-13T10:20:48.585Z,2.10
2023-01-13T10:23:34.439Z,2.95
2023-01-13T10:26:52.229Z,2.72
2023-01-13T10:29:21.594Z,3.22
2023-01-13T10:31:48.788Z,2.63
2023-01-13T10:34:17.062Z,2.50
2023-01-13T10:37:08.652Z,2.40
2023-01-13T10:39:44.422Z,2.50
2023-01-13T10:42:15.279Z,2.60
2023-01-13T10:44:57.661Z,2.47
2023-01-13T10:47:29.160Z,2.60
2023-01-13T10:50:13.370Z,2.72
2023-01-13T10:52:57.247Z,2.20
2023-01-13T10:55:33.378Z,2.35
2023-01-13T10:58:20.744Z,2.85
2023-01-13T11:00:49.594Z,2.63
2023-01-13T11:03:19.267Z,2.63
2023-01-13T11:06:00.192Z,2.50
2023-01-13T11:08:41.512Z,2.50
2023-01-13T11:11:28.172Z,2.60
2023-01-13T11:14:17.779Z,2.83
2023-01-13T11:16:53.433Z,2.60
2023-01-13T11:19:24.673Z,2.40
2023-01-13T11:21:51.832Z,2.67
2023-01-13T11:24:27.059Z,2.85
2023-01-13T11:27:03.512Z,2.30
2023-01-13T11:29:53.289Z,2.50
2023-01-13T11:32:22.602Z,2.25
2023-01-13T11:35:00.802Z,2.75
2023-01-13T11:37:33.335Z,2.78
2023-01-13T11:40:06.355Z,2.38
2023-01-13T11:42:41.836Z,2.80
2023-01-13T11:45:20.645Z,2.10
2023-01-13T11:47:51.982Z,2.25
2023-01-13T11:50:45.374Z,2.33
2023-01-13T11:53:29.496Z,2.28
2023-01-13T11:56:15.237Z,2.60
2023-01-13T11:59:05.384Z,2.17
2023-01-13T12:01:51.278Z,1.80
2023-01-13T12:04:24.078Z,2.35
2023-01-13T12:06:59.483Z,2.40
2023-01-13T12:09:52.476Z,2.45
2023-01-13T12:12:50.445Z,2.50
2023-01-13T12:15:21.308Z,2.33
2023-01-13T12:18:05.480Z,2.33
2023-01-13T12:20:41.775Z,1.80
2023-01-13T12:23:24.247Z,2.03
2023-01-13T12:25:58.402Z,1.80
2023-01-13T12:28:36.132Z,2.00
2023-01-13T12:31:03.680Z,2.05
2023-01-13T12:34:01.696Z,1.87
2023-01-13T12:36:58.434Z,2.60
2023-01-13T12:40:03.933Z,1.92
2023-01-13T12:43:19.160Z,2.28
2023-01-13T12:45:46.363Z,2.37
2023-01-13T12:48:54.817Z,2.50
2023-01-13T12:51:33.218Z,2.47
2023-01-13T12:54:02.254Z,2.47
2023-01-13T12:56:33.077Z,2.38
2023-01-13T12:59:21.452Z,2.35
2023-01-13T13:02:08.565Z,1.85
2023-01-13T13:04:49.127Z,2.30
2023-01-13T13:07:26.541Z,2.38
2023-01-13T13:10:01.853Z,2.10
2023-01-13T13:12:53.512Z,2.10
2023-01-13T13:15:20.705Z,2.08
2023-01-13T13:18:00.328Z,2.45
2023-01-13T13:21:05.782Z,1.88
2023-01-13T13:23:32.903Z,1.83
2023-01-13T13:26:06.279Z,2.20
2023-01-13T13:28:38.081Z,1.70
2023-01-13T13:31:32.179Z,1.88
2023-01-13T13:34:15.517Z,2.17
2023-01-13T13:37:03.713Z,1.80
2023-01-13T13:39:51.941Z,2.27
2023-01-13T13:42:54.334Z,2.00
2023-01-13T13:45:43.951Z,1.80
2023-01-13T13:48:23.129Z,2.08
2023-01-13T13:50:56.968Z,2.20
2023-01-13T13:53:27.494Z,2.53
2023-01-13T13:55:57.453Z,2.53
2023-01-13T13:58:26.384Z,2.22
2023-01-13T14:00:54.694Z,2.88
2023-01-13T14:03:30.159Z,2.38
2023-01-13T14:05:57.483Z,2.33
2023-01-13T14:08:25.887Z,2.30
2023-01-13T14:10:53.385Z,2.33
2023-01-13T14:13:29.200Z,2.22
2023-01-13T14:16:07.087Z,2.27
2023-01-13T14:18:44.146Z,2.13
2023-01-13T14:21:25.183Z,3.08
2023-01-13T14:23:55.652Z,2.25
2023-01-13T14:26:28.327Z,2.63
2023-01-13T14:29:00.675Z,2.60
2023-01-13T14:31:29.271Z,2.30
2023-01-13T14:33:59.252Z,2.72
2023-01-13T14:36:36.737Z,2.40
2023-01-13T14:39:04.176Z,2.60
2023-01-13T14:41:37.899Z,2.50
2023-01-13T14:44:26.840Z,2.15
2023-01-13T14:47:15.505Z,2.00
2023-01-13T14:49:58.931Z,2.60
2023-01-13T14:52:29.571Z,1.90
2023-01-13T14:55:05.714Z,2.35
2023-01-13T14:57:35.189Z,2.53
2023-01-13T15:00:18.748Z,1.97
2023-01-13T15:02:58.237Z,2.20
2023-01-13T15:05:25.475Z,2.88
2023-01-13T15:07:52.594Z,2.83
2023-01-13T15:10:26.297Z,2.40
2023-01-13T15:12:55.564Z,2.13
2023-01-13T15:15:27.371Z,2.57
2023-01-13T15:17:54.815Z,2.30
2023-01-13T15:20:23.999Z,2.15
2023-01-13T15:22:53.306Z,2.28
2023-01-13T15:25:20.697Z,3.22
2023-01-13T15:27:50.989Z,2.53
2023-01-13T15:30:24.910Z,2.40
2023-01-13T15:32:54.963Z,2.10
2023-01-13T15:35:24.114Z,2.20
2023-01-13T15:37:51.711Z,2.17
2023-01-13T15:40:22.037Z,2.53
2023-01-13T15:43:08.286Z,2.15
2023-01-13T15:45:55.620Z,2.03
2023-01-13T15:48:24.437Z,2.60
2023-01-13T15:50:51.691Z,2.10
2023-01-13T15:53:19.517Z,2.15
2023-01-13T15:55:53.440Z,2.30
2023-01-13T15:58:24.041Z,2.00
2023-01-13T16:00:51.385Z,1.73
2023-01-13T16:03:18.863Z,2.42
2023-01-13T16:05:46.091Z,2.40
2023-01-13T16:08:22.640Z,2.28
2023-01-13T16:10:50.168Z,2.10
2023-01-13T16:13:17.964Z,2.28
2023-01-13T16:15:49.705Z,2.33
2023-01-13T16:18:24.212Z,2.00
2023-01-13T16:20:55.244Z,2.00
2023-01-13T16:23:23.096Z,1.90
2023-01-13T16:25:50.932Z,1.85
2023-01-13T16:28:21.737Z,1.95
2023-01-13T16:30:48.952Z,2.03
2023-01-13T16:33:16.306Z,2.30
2023-01-13T16:36:10.484Z,1.85
2023-01-13T16:38:31.022Z,2.13
2023-01-13T16:40:58.345Z,2.03
2023-01-13T16:43:25.500Z,2.20
2023-01-13T16:45:52.732Z,2.20
2023-01-13T16:48:20.218Z,2.33
2023-01-13T16:50:47.517Z,2.22
2023-01-13T16:53:14.733Z,2.10
2023-01-13T16:55:42.626Z,2.20
2023-01-13T16:58:17.372Z,1.65
2023-01-13T17:00:48.135Z,2.17
2023-01-13T17:03:16.081Z,2.17
2023-01-13T17:05:45.239Z,2.22
2023-01-13T17:08:18.045Z,2.17
2023-01-13T17:10:46.334Z,1.50
2023-01-13T17:13:16.726Z,2.20
2023-01-13T17:15:45.510Z,2.00
2023-01-13T17:18:13.382Z,2.10
2023-01-13T17:20:41.065Z,2.07
2023-01-13T17:23:08.370Z,1.77
2023-01-13T17:25:35.587Z,1.80
2023-01-13T17:28:03.124Z,1.90
2023-01-13T17:30:30.321Z,1.80
2023-01-13T17:32:57.501Z,1.70
2023-01-13T17:35:25.391Z,2.47
2023-01-13T17:37:53.762Z,2.30
2023-01-13T17:40:21.173Z,2.13
2023-01-13T17:42:48.500Z,2.28
2023-01-13T17:45:16.280Z,2.00
2023-01-13T17:47:43.495Z,1.93
2023-01-13T17:50:11.067Z,2.40
2023-01-13T17:52:38.257Z,2.33
2023-01-13T17:55:05.778Z,2.33
2023-01-13T17:57:35.166Z,2.57
2023-01-13T18:00:04.200Z,2.00
2023-01-13T18:02:39.381Z,1.98
2023-01-13T18:05:06.738Z,2.55
2023-01-13T18:07:33.973Z,2.63
2023-01-13T18:10:01.176Z,2.70
2023-01-13T18:12:28.366Z,2.28
2023-01-13T18:14:55.484Z,2.33
2023-01-13T18:17:22.608Z,2.77
2023-01-13T18:20:08.353Z,2.38
2023-01-13T18:22:54.242Z,2.37
2023-01-13T18:25:56.987Z,2.28
2023-01-13T18:28:24.225Z,1.67
2023-01-13T18:30:51.433Z,2.50
2023-01-13T18:33:18.668Z,1.90
2023-01-13T18:35:45.826Z,3.85
2023-01-13T18:38:18.894Z,2.23
2023-01-13T18:40:46.047Z,1.90
2023-01-13T18:43:13.354Z,2.33
2023-01-13T18:45:40.562Z,2.13
2023-01-13T18:48:07.813Z,2.60
2023-01-13T18:50:35.067Z,1.90
2023-01-13T18:53:02.738Z,2.28
2023-01-13T18:55:29.999Z,2.50
2023-01-13T18:57:57.739Z,2.15
2023-01-13T19:00:26.855Z,1.90
2023-01-13T19:05:34.661Z,2.00
2023-01-13T19:08:02.392Z,1.95
2023-01-13T19:10:32.152Z,1.90
2023-01-13T19:13:01.080Z,1.80
2023-01-13T19:15:28.365Z,2.40
2023-01-13T19:17:55.583Z,2.30
2023-01-13T19:20:22.780Z,2.53
2023-01-13T19:22:54.179Z,1.90
2023-01-13T19:25:21.366Z,2.00
2023-01-13T19:27:48.554Z,2.00
2023-01-13T19:30:17.211Z,1.58
2023-01-13T19:32:44.403Z,1.75
2023-01-13T19:35:13.120Z,1.70
2023-01-13T19:37:40.738Z,1.87
2023-01-13T19:40:09.709Z,1.80
2023-01-13T19:42:55.716Z,2.10
2023-01-13T19:45:31.176Z,1.98
2023-01-13T19:48:01.779Z,2.50
2023-01-13T19:50:29.295Z,1.73
2023-01-13T19:52:57.079Z,2.10
2023-01-13T19:55:24.419Z,1.45
2023-01-13T19:57:51.593Z,1.55
2023-01-13T20:00:20.782Z,1.70
2023-01-13T20:02:51.723Z,1.70
2023-01-13T20:05:22.283Z,1.95
2023-01-13T20:07:53.145Z,1.77
2023-01-13T20:10:21.817Z,1.42
2023-01-13T20:12:49.289Z,1.50
2023-01-13T20:15:16.594Z,1.92
2023-01-13T20:17:43.854Z,1.70
2023-01-13T20:20:11.898Z,1.88
2023-01-13T20:22:39.785Z,2.00
2023-01-13T20:25:09.344Z,1.80
2023-01-13T20:27:36.961Z,1.80
2023-01-13T20:30:05.740Z,1.50
2023-01-13T20:32:32.915Z,2.30
2023-01-13T20:35:00.100Z,1.92
2023-01-13T20:37:27.643Z,1.73
2023-01-13T20:39:57.345Z,2.00
2023-01-13T20:42:30.437Z,2.13
2023-01-13T20:44:59.197Z,2.42
2023-01-13T20:47:27.954Z,2.15
2023-01-13T20:49:55.163Z,2.38
2023-01-13T20:52:22.660Z,2.70
2023-01-13T20:54:49.894Z,2.80
2023-01-13T20:57:17.178Z,2.42
2023-01-13T20:59:45.080Z,2.42
2023-01-13T21:02:14.794Z,1.90
2023-01-13T21:04:42.264Z,2.42
2023-01-13T21:07:09.758Z,1.90
2023-01-13T21:09:37.018Z,2.28
2023-01-13T21:12:23.744Z,1.70
2023-01-13T21:15:09.685Z,2.05
2023-01-13T21:17:55.583Z,2.15
2023-01-13T21:20:22.741Z,1.90
2023-01-13T21:22:50.093Z,2.30
2023-01-13T21:25:18.921Z,2.80
2023-01-13T21:27:46.183Z,2.45
2023-01-13T21:30:15.273Z,2.75
2023-01-13T21:32:44.020Z,2.60
2023-01-13T21:35:12.495Z,2.43
2023-01-13T21:37:40.849Z,2.37
2023-01-13T21:40:10.170Z,1.90
2023-01-13T21:43:03.696Z,3.60
2023-01-13T21:45:50.206Z,2.78
2023-01-13T21:48:17.469Z,2.37
2023-01-13T21:50:45.252Z,2.65
2023-01-13T21:53:12.462Z,2.92
2023-01-13T21:55:39.651Z,2.60
2023-01-13T21:58:12.130Z,2.67
2023-01-13T22:00:44.311Z,2.83
2023-01-13T22:03:13.910Z,2.40
2023-01-13T22:05:41.461Z,2.53
2023-01-13T22:08:08.778Z,2.60
2023-01-13T22:10:36.012Z,2.50
2023-01-13T22:13:24.224Z,2.58
2023-01-13T22:15:51.506Z,2.70
2023-01-13T22:18:18.675Z,2.28
2023-01-13T22:20:46.401Z,2.28
2023-01-13T22:23:13.666Z,2.17
2023-01-13T22:25:40.900Z,2.90
2023-01-13T22:28:09.160Z,2.85
2023-01-13T22:30:36.595Z,2.40
2023-01-13T22:33:03.803Z,2.33
2023-01-13T22:35:31.043Z,1.83
2023-01-13T22:37:58.440Z,2.50
2023-01-13T22:40:25.650Z,2.20
2023-01-13T22:42:52.824Z,2.47
2023-01-13T22:45:19.978Z,2.25
2023-01-13T22:47:47.938Z,2.53
2023-01-13T22:50:17.470Z,2.47
2023-01-13T22:52:44.641Z,2.33
2023-01-13T22:55:11.831Z,2.20
2023-01-13T22:57:47.754Z,2.45
2023-01-13T23:00:18.827Z,2.22
2023-01-13T23:02:46.489Z,2.53
2023-01-13T23:05:13.948Z,2.67
2023-01-13T23:07:41.750Z,2.20
2023-01-13T23:10:09.466Z,2.53
2023-01-13T23:12:36.923Z,2.13
2023-01-13T23:15:05.156Z,2.33
2023-01-13T23:17:32.277Z,2.07
2023-01-13T23:19:59.695Z,2.60
2023-01-13T23:22:26.924Z,2.67
2023-01-13T23:24:54.096Z,2.67
2023-01-13T23:27:21.243Z,2.63
2023-01-13T23:29:48.965Z,2.58
2023-01-13T23:32:16.152Z,2.45
2023-01-13T23:34:43.328Z,1.75
2023-01-13T23:37:10.533Z,2.15
2023-01-13T23:39:37.727Z,2.42
2023-01-13T23:42:04.914Z,2.58
2023-01-13T23:44:32.116Z,2.47
2023-01-13T23:46:59.302Z,2.13
2023-01-13T23:49:26.550Z,1.92
2023-01-13T23:51:53.775Z,2.20
2023-01-13T23:54:21.080Z,2.58
2023-01-13T23:56:50.342Z,2.35
2023-01-13T23:59:19.886Z,2.25
